Terminal Aerodrome Forecast
Issued by NWS

Home | Current Version | Previous Version | Text Only | Print | Product List | Glossary On
Versions: 1 2 3 4 5 6 7 8 9 10 11 12 13 14 15 16 17
000
FTUS44 KLZK 260221 AAA
TAFBPK
TAF AMD
KBPK 260221Z 2602/2624 00000KT 6SM -RA BR BKN025
     FM261500 34007KT P6SM OVC015
     FM262100 35005KT P6SM BKN050=

USA.gov is the U.S. government's official web portal to all federal, state and local government web resources and services.